Latest Weather Observations for The Monument

IDQ60801

Issued at 2:02 pm EST Friday 27 May 2016 (issued every 30 minutes, with the page automatically refreshed every 10 minutes)

About weather observations | Map of weather stations | Latest weather observations for QLD | Other Formats
Station Details ID: 037034 Name: THE MONUMENT AIRPORT Lat: -21.81 Lon: 139.93 Height: 288.4 m
Data from the previous 72 hours. | See also: Recent months at The Monument
Date/Time
EST
Temp
°C
App
Temp
°C
Dew
Point
Rel
Hum
%
Delta-T
°C
Wind Press
QNH
hPa
Press
MSL
hPa
Rain
since 9 am
mm
Dir
 
Spd
km/h
Gust
km/h
Spd
kts
Gust
kts
27/02:00pm 27.8 23.9 13.3 40 8.7 S 26 33 14 18 1014.7 1013.8 0.0
27/01:30pm 27.8 25.0 13.3 40 8.7 SSW 20 33 11 18 1015.0 1014.1 0.0
27/01:00pm 27.4 24.8 13.7 43 8.2 SSW 20 26 11 14 1015.4 1014.5 0.0
27/12:30pm 27.7 24.9 14.3 43 8.1 S 22 30 12 16 1015.7 1014.8 0.0
27/12:00pm 27.8 25.7 14.8 45 7.9 SSW 19 26 10 14 1015.8 1014.9 0.0
27/11:30am 27.5 26.1 15.5 48 7.4 SW 17 24 9 13 1016.1 1015.2 0.0
27/11:00am 26.7 25.1 13.8 45 7.7 SSW 15 22 8 12 1016.6 1015.8 0.0
27/10:30am 26.7 24.3 13.8 45 7.7 SW 19 28 10 15 1016.6 1015.8 0.0
27/10:00am 26.6 24.3 14.0 46 7.6 SW 19 24 10 13 1016.5 1015.7 0.0
27/09:30am 26.3 25.3 16.5 54 6.1 W 17 24 9 13 1016.2 1015.3 0.0
27/09:00am 25.6 24.8 15.0 52 6.4 W 13 19 7 10 1015.7 1014.8 0.0
27/08:30am 24.2 24.5 15.1 56 5.5 NW 7 9 4 5 1015.2 1014.3 0.0
27/08:00am 21.4 21.2 14.8 66 3.9 NNW 9 11 5 6 1015.2 1014.3 0.0
27/07:30am 20.1 20.1 14.2 69 3.5 WNW 7 11 4 6 1014.8 1013.9 0.0
27/07:00am 19.0 18.6 14.1 73 2.9 NNW 9 11 5 6 1014.3 1013.4 0.0
27/06:30am 18.9 18.4 13.7 72 3.0 N 9 11 5 6 1013.9 1013.0 0.0
27/06:00am 19.4 20.6 13.8 70 3.3 CALM 0 0 0 0 1013.7 1012.8 0.0
27/05:30am 20.5 20.0 13.9 66 3.9 SSE 9 11 5 6 1013.5 1012.5 0.0
27/05:00am 20.9 19.8 14.3 66 3.9 WNW 13 24 7 13 1013.5 1012.5 0.0
27/04:30am 21.3 20.3 14.5 65 4.0 NNW 13 13 7 7 1013.2 1012.2 0.0
27/04:00am 21.3 20.6 14.2 64 4.2 NNW 11 13 6 7 1013.2 1012.2 0.0
27/03:30am 21.7 21.0 14.4 63 4.3 NNW 11 13 6 7 1013.3 1012.3 0.0
27/03:00am 21.8 21.1 14.2 62 4.5 NNW 11 13 6 7 1013.3 1012.3 0.0
27/02:30am 21.7 20.9 14.1 62 4.5 NNW 11 13 6 7 1013.3 1012.3 0.0
27/02:00am 21.3 20.5 14.0 63 4.3 NNW 11 11 6 6 1013.7 1012.8 0.0
27/01:30am 21.7 20.8 13.6 60 4.7 NNW 11 13 6 7 1013.9 1013.0 0.0
27/01:00am 22.3 21.7 13.6 58 5.1 NNW 9 13 5 7 1013.9 1013.0 0.0
27/12:30am 22.5 21.8 13.3 56 5.4 NNW 9 11 5 6 1014.0 1013.1 0.0
27/12:00am 23.6 23.1 13.8 54 5.8 NW 9 11 5 6 1014.0 1013.1 0.0
 
Date/Time
EST
Temp
°C
App
Temp
°C
Dew
Point
Rel
Hum
%
Delta-T
°C
Wind Press
QNH
hPa
Press
MSL
hPa
Rain
since 9 am
mm
Dir
 
Spd
km/h
Gust
km/h
Spd
kts
Gust
kts
26/11:30pm 23.1 22.5 13.6 55 5.6 NW 9 11 5 6 1014.1 1013.2 0.0
26/11:00pm 23.1 22.5 13.6 55 5.6 NNW 9 9 5 5 1014.3 1013.4 0.0
26/10:30pm 22.6 21.9 14.4 60 4.9 NNW 11 11 6 6 1014.4 1013.5 0.0
26/10:00pm 22.7 22.4 14.3 59 5.0 NW 9 11 5 6 1014.7 1013.8 0.0
26/09:30pm 23.6 23.6 14.3 56 5.6 NW 7 9 4 5 1014.8 1013.9 0.0
26/09:00pm 25.1 25.1 14.3 51 6.5 WNW 7 9 4 5 1014.8 1013.9 0.0
26/08:30pm 24.3 24.4 14.4 54 5.9 NW 7 9 4 5 1014.7 1013.8 0.0
26/08:00pm 24.9 24.5 14.1 51 6.5 NNW 9 9 5 5 1014.3 1013.4 0.0
26/07:30pm 26.2 26.0 13.7 46 7.5 NW 7 9 4 5 1013.7 1012.8 0.0
26/07:00pm 27.4 27.3 13.4 42 8.4 WNW 6 7 3 4 1013.4 1012.4 0.0
26/06:30pm 29.3 28.4 12.7 36 9.9 WNW 9 11 5 6 1012.8 1011.9 0.0
26/06:00pm 30.5 29.2 12.4 33 10.8 W 11 13 6 7 1012.6 1011.7 0.0
26/05:30pm 31.6 29.1 12.4 31 11.5 WNW 17 20 9 11 1012.4 1011.5 0.0
26/05:00pm 31.8 29.4 12.6 31 11.5 W 17 24 9 13 1012.5 1011.6 0.0
26/04:30pm 32.2 30.3 12.9 31 11.7 W 15 24 8 13 1012.4 1011.5 0.0
26/04:00pm 32.3 29.9 12.5 30 11.9 WNW 17 24 9 13 1012.3 1011.4 0.0
26/03:30pm 32.4 30.1 13.1 31 11.7 W 17 26 9 14 1012.4 1011.5 0.0
26/03:00pm 32.4 29.8 13.1 31 11.7 WNW 19 28 10 15 1012.6 1011.7 0.0
26/02:30pm 31.8 30.4 13.5 32 11.1 WNW 13 22 7 12 1013.1 1012.1 0.0
26/02:00pm 31.5 28.7 13.3 33 11.0 W 20 30 11 16 1013.5 1012.5 0.0
26/01:30pm 31.9 29.2 13.6 32 11.2 WNW 20 28 11 15 1013.8 1012.9 0.0
26/01:00pm 31.6 29.5 14.7 36 10.5 WNW 19 26 10 14 1014.3 1013.4 0.0
26/12:30pm 31.0 28.7 14.2 36 10.3 WNW 19 30 10 16 1014.8 1013.9 0.0
26/12:00pm 30.6 28.4 14.3 37 10.0 W 19 26 10 14 1015.4 1014.5 0.0
26/11:30am 30.1 28.4 14.6 39 9.5 WNW 17 26 9 14 1015.8 1014.9 0.0
26/11:00am 29.9 28.0 15.2 41 9.1 WNW 19 24 10 13 1016.2 1015.3 0.0
26/10:30am 29.2 27.1 15.3 42 8.6 WNW 20 26 11 14 1016.4 1015.5 0.0
26/10:00am 28.7 27.4 15.9 45 8.0 WNW 17 20 9 11 1016.5 1015.7 0.0
26/09:30am 27.7 26.6 16.3 49 7.1 WNW 17 20 9 11 1016.3 1015.4 0.0
26/09:00am 26.1 25.7 17.2 58 5.6 NW 15 17 8 9 1016.2 1015.3 0.0
26/08:30am 24.9 24.9 17.1 62 4.9 NW 13 17 7 9 1016.0 1015.1 0.0
26/08:00am 22.8 23.1 17.0 70 3.6 NNW 11 15 6 8 1015.6 1014.7 0.0
26/07:30am 21.1 21.1 16.3 74 2.9 NNW 11 13 6 7 1015.4 1014.5 0.0
26/07:00am 20.9 20.9 16.3 75 2.8 NNW 11 13 6 7 1015.1 1014.2 0.0
26/06:30am 21.1 21.1 16.3 74 2.9 NNW 11 13 6 7 1014.8 1013.9 0.0
26/06:00am 21.0 20.9 16.0 73 3.0 NNW 11 13 6 7 1014.6 1013.7 0.0
26/05:30am 21.0 21.2 15.8 72 3.1 NNW 9 11 5 6 1014.3 1013.4 0.0
26/05:00am 21.8 21.7 16.1 70 3.5 NNW 11 13 6 7 1014.2 1013.3 0.0
26/04:30am 22.0 21.9 16.1 69 3.6 NNW 11 13 6 7 1014.1 1013.2 0.0
26/04:00am 22.2 21.7 16.0 68 3.8 NNW 13 17 7 9 1014.2 1013.3 0.0
26/03:30am 22.5 22.8 16.1 67 3.9 NNW 9 13 5 7 1014.2 1013.3 0.0
26/03:00am 22.2 22.4 15.8 67 3.9 NNW 9 13 5 7 1014.4 1013.5 0.0
26/02:30am 22.2 22.3 15.5 66 4.1 NNW 9 11 5 6 1014.5 1013.6 0.0
26/02:00am 22.5 22.6 15.6 65 4.2 NNW 9 11 5 6 1014.6 1013.7 0.0
26/01:30am 22.9 22.9 15.2 62 4.7 NNW 9 11 5 6 1014.8 1013.9 0.0
26/01:00am 23.6 23.3 15.4 60 5.0 NNW 11 15 6 8 1015.0 1014.1 0.0
26/12:30am 23.6 23.2 15.1 59 5.1 NNW 11 15 6 8 1015.0 1014.1 0.0
26/12:00am 24.3 23.9 15.2 57 5.5 NNW 11 15 6 8 1015.1 1014.2 0.0
 
Date/Time
EST
Temp
°C
App
Temp
°C
Dew
Point
Rel
Hum
%
Delta-T
°C
Wind Press
QNH
hPa
Press
MSL
hPa
Rain
since 9 am
mm
Dir
 
Spd
km/h
Gust
km/h
Spd
kts
Gust
kts
25/11:30pm 24.1 24.5 15.3 58 5.3 N 7 9 4 5 1015.3 1014.4 0.0
25/11:00pm 24.3 24.7 15.2 57 5.5 N 7 9 4 5 1015.4 1014.5 0.0
25/10:30pm 24.5 24.7 15.7 58 5.4 N 9 11 5 6 1015.4 1014.5 0.0
25/10:00pm 24.3 24.4 15.5 58 5.4 NNE 9 11 5 6 1015.4 1014.5 0.0
25/09:30pm 24.5 24.2 15.4 57 5.5 NNE 11 13 6 7 1015.4 1014.5 0.0
25/09:00pm 24.8 24.9 15.4 56 5.7 NNE 9 11 5 6 1015.2 1014.3 0.0
25/08:30pm 25.3 25.3 15.3 54 6.1 NNE 9 11 5 6 1015.0 1014.1 0.0
25/08:00pm 26.3 26.4 15.4 51 6.7 NNE 9 9 5 5 1014.7 1013.8 0.0
25/07:30pm 27.0 27.3 15.1 48 7.3 NNE 7 11 4 6 1014.4 1013.5 0.0
25/07:00pm 27.5 27.9 14.8 45 7.8 N 6 7 3 4 1014.0 1013.1 0.0
25/06:30pm 28.0 28.2 14.3 43 8.3 N 6 7 3 4 1013.6 1012.7 0.0
25/06:00pm 28.7 28.1 13.4 39 9.2 N 9 13 5 7 1013.2 1012.2 0.0
25/05:30pm 30.1 29.1 13.4 36 10.1 NNE 11 15 6 8 1012.7 1011.8 0.0
25/05:00pm 30.1 29.5 13.4 36 10.1 N 9 17 5 9 1012.6 1011.7 0.0
25/04:30pm 31.3 29.8 13.1 33 11.0 NE 13 20 7 11 1012.4 1011.5 0.0
25/04:00pm 30.9 28.5 12.8 33 10.9 NNE 17 22 9 12 1012.3 1011.4 0.0
25/03:30pm 31.3 29.4 13.1 33 11.0 NE 15 24 8 13 1012.5 1011.6 0.0
25/03:00pm 31.1 30.1 13.4 34 10.7 N 11 20 6 11 1012.8 1011.9 0.0
25/02:30pm 31.4 30.1 13.6 33 10.8 NE 13 20 7 11 1013.1 1012.1 0.0
25/02:00pm 30.6 29.1 13.0 34 10.6 NE 13 20 7 11 1013.5 1012.5 0.0
25/01:30pm 30.0 29.1 13.7 37 9.9 ENE 11 19 6 10 1014.1 1013.2 0.0
25/01:00pm 29.6 27.6 13.8 38 9.6 ENE 17 20 9 11 1014.8 1013.9 0.0
25/12:30pm 29.6 28.1 14.2 39 9.4 E 15 20 8 11 1015.3 1014.4 0.0
25/12:00pm 29.0 27.9 14.4 41 8.9 E 13 24 7 13 1015.8 1014.9 0.0
25/11:30am 28.4 26.7 13.5 40 9.0 ESE 15 24 8 13 1016.2 1015.3 0.0
25/11:00am 28.1 26.2 14.3 42 8.4 ESE 17 24 9 13 1016.8 1015.9 0.0
25/10:30am 26.9 25.3 15.0 48 7.3 ESE 17 22 9 12 1017.1 1016.2 0.0
25/10:00am 26.5 25.6 15.8 51 6.6 ESE 15 22 8 12 1017.3 1016.4 0.0
25/09:30am 25.6 25.1 15.9 55 6.0 SE 13 17 7 9 1017.2 1016.3 0.0
25/09:00am 24.1 24.5 16.4 62 4.8 SE 9 11 5 6 1017.0 1016.1 0.0
25/08:30am 21.9 23.9 16.0 69 3.6 CALM 0 7 0 4 1017.0 1016.1 0.0
25/08:00am 20.4 22.3 15.8 75 2.8 CALM 0 0 0 0 1016.6 1015.8 0.0
25/07:30am 19.0 20.9 15.7 81 2.0 CALM 0 0 0 0 1016.4 1015.5 0.0
25/07:00am 18.3 20.0 15.2 82 1.8 CALM 0 0 0 0 1016.1 1015.2 0.0
25/06:30am 18.6 19.9 15.1 80 2.1 SSE 2 6 1 3 1015.9 1015.0 0.0
25/06:00am 19.0 20.9 15.7 81 2.0 CALM 0 0 0 0 1015.9 1015.0 0.0
25/05:30am 19.4 20.1 15.5 78 2.3 NE 6 7 3 4 1015.6 1014.7 0.0
25/05:00am 19.2 20.9 15.1 77 2.4 CALM 0 0 0 0 1015.7 1014.8 0.0
25/04:30am 20.3 22.0 15.3 73 3.0 CALM 0 0 0 0 1015.7 1014.8 0.0
25/04:00am 21.1 23.1 15.9 72 3.2 CALM 0 0 0 0 1015.9 1015.0 0.0
25/03:30am 21.1 21.7 15.4 70 3.4 NE 6 7 3 4 1016.0 1015.1 0.0
25/03:00am 21.6 22.2 15.4 68 3.7 ESE 6 6 3 3 1016.1 1015.2 0.0
25/02:30am 22.9 23.6 15.7 64 4.4 SE 6 7 3 4 1016.3 1015.4 0.0
25/02:00am 23.3 24.1 15.9 63 4.5 SSE 6 7 3 4 1016.5 1015.7 0.0
25/01:30am 23.5 24.3 15.8 62 4.7 SSE 6 7 3 4 1016.5 1015.7 0.0
25/01:00am 23.5 23.6 15.5 60 4.9 SE 9 11 5 6 1016.8 1015.9 0.0
25/12:30am 23.8 23.6 15.6 60 5.0 SE 11 13 6 7 1017.0 1016.1 0.0
25/12:00am 24.4 24.0 15.3 57 5.5 E 11 15 6 8 1017.1 1016.2 0.0
 
Date/Time
EST
Temp
°C
App
Temp
°C
Dew
Point
Rel
Hum
%
Delta-T
°C
Wind Press
QNH
hPa
Press
MSL
hPa
Rain
since 9 am
mm
Dir
 
Spd
km/h
Gust
km/h
Spd
kts
Gust
kts
24/11:30pm 24.4 24.0 15.3 57 5.5 E 11 13 6 7 1017.3 1016.4 0.0
24/11:00pm 23.8 23.8 15.3 59 5.2 ESE 9 11 5 6 1017.5 1016.6 0.0
24/10:30pm 24.3 23.8 15.0 56 5.6 ESE 11 13 6 7 1017.6 1016.7 0.0
24/10:00pm 24.9 24.3 14.7 53 6.2 ESE 11 15 6 8 1017.6 1016.7 0.0
24/09:30pm 25.2 24.1 14.3 50 6.5 ESE 13 17 7 9 1017.6 1016.7 0.0
24/09:00pm 25.7 23.8 14.2 49 6.9 ESE 17 20 9 11 1017.4 1016.5 0.0
24/08:30pm 26.0 24.2 13.2 45 7.6 ESE 15 19 8 10 1017.3 1016.4 0.0
24/08:00pm 25.6 24.2 13.5 47 7.2 ESE 13 19 7 10 1017.1 1016.2 0.0
24/07:30pm 26.1 25.2 13.6 46 7.5 ESE 11 15 6 8 1017.0 1016.1 0.0
24/07:00pm 26.4 25.8 13.5 45 7.7 ESE 9 13 5 7 1016.8 1015.9 0.0
24/06:30pm 26.8 25.6 12.8 42 8.3 ESE 11 15 6 8 1016.2 1015.3 0.0
24/06:00pm 27.1 25.1 12.7 41 8.5 ESE 15 20 8 11 1015.9 1015.0 0.0
24/05:30pm 27.4 24.9 12.2 39 8.9 ESE 17 20 9 11 1015.9 1015.0 0.0
24/05:00pm 27.7 25.9 12.1 38 9.1 E 13 20 7 11 1016.0 1015.1 0.0
24/04:30pm 28.0 25.5 12.4 38 9.2 E 17 22 9 12 1015.7 1014.8 0.0
24/04:00pm 28.1 25.5 12.0 36 9.4 E 17 24 9 13 1015.8 1014.9 0.0
24/03:30pm 28.5 25.5 12.0 36 9.7 ESE 19 28 10 15 1015.8 1014.9 0.0
24/03:00pm 27.9 25.6 13.1 40 8.8 ESE 17 24 9 13 1015.8 1014.9 0.0
24/02:30pm 28.2 26.7 14.1 42 8.5 ESE 15 22 8 12 1015.9 1015.0 0.0

Other Formats:

Comma delimited format used in spreadsheet applications
http://www.bom.gov.au/fwo/IDQ60801/IDQ60801.94336.axf

JavaScript Object Notation format (JSON) in row-major order
http://www.bom.gov.au/fwo/IDQ60801/IDQ60801.94336.json